sensor_id;sensor_type;location;lat;lon;timestamp;P1;durP1;ratioP1;P2;durP2;ratioP2
9729;SDS011;4904;49.152;11.004;2023-02-28T00:00:08;4.40;;;3.20;;
9729;SDS011;4904;49.152;11.004;2023-02-28T00:02:36;5.70;;;3.20;;
9729;SDS011;4904;49.152;11.004;2023-02-28T00:05:04;4.03;;;2.90;;
9729;SDS011;4904;49.152;11.004;2023-02-28T00:07:32;4.13;;;3.20;;
9729;SDS011;4904;49.152;11.004;2023-02-28T00:10:00;3.03;;;2.73;;
9729;SDS011;4904;49.152;11.004;2023-02-28T00:12:27;4.37;;;3.03;;
9729;SDS011;4904;49.152;11.004;2023-02-28T00:14:54;3.30;;;2.80;;
9729;SDS011;4904;49.152;11.004;2023-02-28T00:17:21;5.17;;;3.20;;
9729;SDS011;4904;49.152;11.004;2023-02-28T00:19:48;4.47;;;3.33;;
9729;SDS011;4904;49.152;11.004;2023-02-28T00:22:15;3.63;;;3.17;;
9729;SDS011;4904;49.152;11.004;2023-02-28T00:24:43;3.20;;;2.90;;
9729;SDS011;4904;49.152;11.004;2023-02-28T00:27:11;4.43;;;2.77;;
9729;SDS011;4904;49.152;11.004;2023-02-28T00:29:39;4.30;;;2.90;;
9729;SDS011;4904;49.152;11.004;2023-02-28T00:32:06;3.40;;;2.70;;
9729;SDS011;4904;49.152;11.004;2023-02-28T00:34:33;3.53;;;2.70;;
9729;SDS011;4904;49.152;11.004;2023-02-28T00:37:02;4.33;;;2.97;;
9729;SDS011;4904;49.152;11.004;2023-02-28T00:39:31;3.50;;;2.80;;
9729;SDS011;4904;49.152;11.004;2023-02-28T00:41:59;4.40;;;2.60;;
9729;SDS011;4904;49.152;11.004;2023-02-28T00:44:28;4.83;;;2.83;;
9729;SDS011;4904;49.152;11.004;2023-02-28T00:46:55;3.63;;;2.83;;
9729;SDS011;4904;49.152;11.004;2023-02-28T00:49:22;3.23;;;2.70;;
9729;SDS011;4904;49.152;11.004;2023-02-28T00:51:50;3.77;;;2.87;;
9729;SDS011;4904;49.152;11.004;2023-02-28T00:54:17;3.97;;;2.87;;
9729;SDS011;4904;49.152;11.004;2023-02-28T00:56:44;4.60;;;2.80;;
9729;SDS011;4904;49.152;11.004;2023-02-28T00:59:12;3.83;;;2.97;;
9729;SDS011;4904;49.152;11.004;2023-02-28T01:01:40;5.20;;;3.17;;
9729;SDS011;4904;49.152;11.004;2023-02-28T01:04:08;3.50;;;2.60;;
9729;SDS011;4904;49.152;11.004;2023-02-28T01:06:35;5.17;;;2.73;;
9729;SDS011;4904;49.152;11.004;2023-02-28T01:09:02;3.80;;;3.03;;
9729;SDS011;4904;49.152;11.004;2023-02-28T01:11:30;4.77;;;2.93;;
9729;SDS011;4904;49.152;11.004;2023-02-28T01:13:58;4.00;;;2.90;;
9729;SDS011;4904;49.152;11.004;2023-02-28T01:16:25;3.83;;;2.87;;
9729;SDS011;4904;49.152;11.004;2023-02-28T01:18:54;3.10;;;2.43;;
9729;SDS011;4904;49.152;11.004;2023-02-28T01:21:21;5.07;;;3.43;;
9729;SDS011;4904;49.152;11.004;2023-02-28T01:23:49;3.87;;;2.90;;
9729;SDS011;4904;49.152;11.004;2023-02-28T01:26:16;3.50;;;2.90;;
9729;SDS011;4904;49.152;11.004;2023-02-28T01:28:45;3.87;;;2.77;;
9729;SDS011;4904;49.152;11.004;2023-02-28T01:31:12;3.30;;;2.83;;
9729;SDS011;4904;49.152;11.004;2023-02-28T01:33:39;4.10;;;2.97;;
9729;SDS011;4904;49.152;11.004;2023-02-28T01:36:09;5.03;;;3.20;;
9729;SDS011;4904;49.152;11.004;2023-02-28T01:38:37;5.40;;;3.03;;
9729;SDS011;4904;49.152;11.004;2023-02-28T01:41:05;3.40;;;3.10;;
9729;SDS011;4904;49.152;11.004;2023-02-28T01:43:52;3.80;;;3.13;;
9729;SDS011;4904;49.152;11.004;2023-02-28T01:46:21;5.67;;;2.90;;
9729;SDS011;4904;49.152;11.004;2023-02-28T01:48:49;3.63;;;3.03;;
9729;SDS011;4904;49.152;11.004;2023-02-28T01:51:20;3.43;;;2.80;;
9729;SDS011;4904;49.152;11.004;2023-02-28T01:53:52;4.43;;;3.00;;
9729;SDS011;4904;49.152;11.004;2023-02-28T01:56:22;4.07;;;3.40;;
9729;SDS011;4904;49.152;11.004;2023-02-28T01:58:53;3.73;;;3.00;;
9729;SDS011;4904;49.152;11.004;2023-02-28T02:01:21;6.53;;;3.30;;
9729;SDS011;4904;49.152;11.004;2023-02-28T02:03:50;6.53;;;3.00;;
9729;SDS011;4904;49.152;11.004;2023-02-28T02:06:21;4.20;;;3.40;;
9729;SDS011;4904;49.152;11.004;2023-02-28T02:08:49;4.30;;;3.33;;
9729;SDS011;4904;49.152;11.004;2023-02-28T02:11:17;4.03;;;3.00;;
9729;SDS011;4904;49.152;11.004;2023-02-28T02:13:53;4.37;;;3.20;;
9729;SDS011;4904;49.152;11.004;2023-02-28T02:16:41;5.40;;;3.60;;
9729;SDS011;4904;49.152;11.004;2023-02-28T02:19:19;4.57;;;3.57;;
9729;SDS011;4904;49.152;11.004;2023-02-28T02:22:17;4.40;;;3.37;;
9729;SDS011;4904;49.152;11.004;2023-02-28T02:25:10;4.43;;;3.30;;
9729;SDS011;4904;49.152;11.004;2023-02-28T02:27:48;3.73;;;3.30;;
9729;SDS011;4904;49.152;11.004;2023-02-28T02:30:43;5.83;;;3.57;;
9729;SDS011;4904;49.152;11.004;2023-02-28T02:36:37;5.67;;;3.50;;
9729;SDS011;4904;49.152;11.004;2023-02-28T02:39:09;4.57;;;3.33;;
9729;SDS011;4904;49.152;11.004;2023-02-28T02:41:45;4.57;;;3.43;;
9729;SDS011;4904;49.152;11.004;2023-02-28T02:44:17;6.07;;;3.50;;
9729;SDS011;4904;49.152;11.004;2023-02-28T02:46:48;4.20;;;3.40;;
9729;SDS011;4904;49.152;11.004;2023-02-28T02:49:21;5.27;;;3.50;;
9729;SDS011;4904;49.152;11.004;2023-02-28T02:51:54;5.97;;;3.50;;
9729;SDS011;4904;49.152;11.004;2023-02-28T02:54:24;4.60;;;3.43;;
9729;SDS011;4904;49.152;11.004;2023-02-28T02:56:55;4.60;;;3.50;;
9729;SDS011;4904;49.152;11.004;2023-02-28T02:59:25;6.33;;;4.20;;
9729;SDS011;4904;49.152;11.004;2023-02-28T03:01:55;8.73;;;5.33;;
9729;SDS011;4904;49.152;11.004;2023-02-28T03:04:27;5.47;;;4.30;;
9729;SDS011;4904;49.152;11.004;2023-02-28T03:06:57;5.73;;;4.17;;
9729;SDS011;4904;49.152;11.004;2023-02-28T03:09:24;4.77;;;3.63;;
9729;SDS011;4904;49.152;11.004;2023-02-28T03:11:52;4.90;;;3.93;;
9729;SDS011;4904;49.152;11.004;2023-02-28T03:14:25;6.87;;;4.00;;
9729;SDS011;4904;49.152;11.004;2023-02-28T03:17:12;5.83;;;3.67;;
9729;SDS011;4904;49.152;11.004;2023-02-28T03:20:03;4.80;;;3.90;;
9729;SDS011;4904;49.152;11.004;2023-02-28T03:22:43;5.03;;;3.83;;
9729;SDS011;4904;49.152;11.004;2023-02-28T03:25:18;5.07;;;3.83;;
9729;SDS011;4904;49.152;11.004;2023-02-28T03:27:52;8.87;;;4.37;;
9729;SDS011;4904;49.152;11.004;2023-02-28T03:30:27;5.43;;;3.80;;
9729;SDS011;4904;49.152;11.004;2023-02-28T03:33:00;5.53;;;3.90;;
9729;SDS011;4904;49.152;11.004;2023-02-28T03:35:34;5.43;;;3.80;;
9729;SDS011;4904;49.152;11.004;2023-02-28T03:38:06;5.30;;;3.90;;
9729;SDS011;4904;49.152;11.004;2023-02-28T03:40:39;7.17;;;4.00;;
9729;SDS011;4904;49.152;11.004;2023-02-28T03:43:17;5.80;;;3.97;;
9729;SDS011;4904;49.152;11.004;2023-02-28T03:45:48;5.30;;;4.03;;
9729;SDS011;4904;49.152;11.004;2023-02-28T03:48:19;4.87;;;3.60;;
9729;SDS011;4904;49.152;11.004;2023-02-28T03:50:51;5.77;;;4.13;;
9729;SDS011;4904;49.152;11.004;2023-02-28T03:53:21;6.50;;;4.50;;
9729;SDS011;4904;49.152;11.004;2023-02-28T03:55:52;6.57;;;4.33;;
9729;SDS011;4904;49.152;11.004;2023-02-28T03:58:24;6.57;;;4.40;;
9729;SDS011;4904;49.152;11.004;2023-02-28T04:00:58;7.13;;;4.40;;
9729;SDS011;4904;49.152;11.004;2023-02-28T04:03:33;4.67;;;4.03;;
9729;SDS011;4904;49.152;11.004;2023-02-28T04:06:02;4.97;;;3.73;;
9729;SDS011;4904;49.152;11.004;2023-02-28T04:08:30;4.97;;;3.73;;
9729;SDS011;4904;49.152;11.004;2023-02-28T04:10:58;5.47;;;3.97;;
9729;SDS011;4904;49.152;11.004;2023-02-28T04:13:30;5.57;;;4.27;;
9729;SDS011;4904;49.152;11.004;2023-02-28T04:15:58;5.23;;;4.30;;
9729;SDS011;4904;49.152;11.004;2023-02-28T04:18:24;5.57;;;4.23;;
9729;SDS011;4904;49.152;11.004;2023-02-28T04:20:51;5.37;;;4.50;;
9729;SDS011;4904;49.152;11.004;2023-02-28T04:23:19;5.70;;;4.17;;
9729;SDS011;4904;49.152;11.004;2023-02-28T04:25:46;4.67;;;3.73;;
9729;SDS011;4904;49.152;11.004;2023-02-28T04:28:14;6.03;;;4.70;;
9729;SDS011;4904;49.152;11.004;2023-02-28T04:30:41;5.17;;;4.50;;
9729;SDS011;4904;49.152;11.004;2023-02-28T04:33:08;7.27;;;4.63;;
9729;SDS011;4904;49.152;11.004;2023-02-28T04:35:35;5.53;;;4.10;;
9729;SDS011;4904;49.152;11.004;2023-02-28T04:38:02;6.13;;;4.70;;
9729;SDS011;4904;49.152;11.004;2023-02-28T04:40:30;7.43;;;4.67;;
9729;SDS011;4904;49.152;11.004;2023-02-28T04:42:57;7.13;;;4.43;;
9729;SDS011;4904;49.152;11.004;2023-02-28T04:45:23;6.17;;;4.63;;
9729;SDS011;4904;49.152;11.004;2023-02-28T04:47:50;6.63;;;4.87;;
9729;SDS011;4904;49.152;11.004;2023-02-28T04:50:18;13.53;;;8.20;;
9729;SDS011;4904;49.152;11.004;2023-02-28T04:52:45;15.03;;;8.87;;
9729;SDS011;4904;49.152;11.004;2023-02-28T04:55:12;14.10;;;8.23;;
9729;SDS011;4904;49.152;11.004;2023-02-28T04:57:40;13.70;;;8.37;;
9729;SDS011;4904;49.152;11.004;2023-02-28T05:00:09;12.80;;;8.23;;
9729;SDS011;4904;49.152;11.004;2023-02-28T05:02:37;14.47;;;8.87;;
9729;SDS011;4904;49.152;11.004;2023-02-28T05:05:04;13.47;;;7.63;;
9729;SDS011;4904;49.152;11.004;2023-02-28T05:07:32;12.33;;;7.80;;
9729;SDS011;4904;49.152;11.004;2023-02-28T05:09:58;9.73;;;7.37;;
9729;SDS011;4904;49.152;11.004;2023-02-28T05:12:26;10.77;;;7.33;;
9729;SDS011;4904;49.152;11.004;2023-02-28T05:14:54;12.50;;;8.30;;
9729;SDS011;4904;49.152;11.004;2023-02-28T05:17:21;12.87;;;9.20;;
9729;SDS011;4904;49.152;11.004;2023-02-28T05:19:48;12.27;;;7.40;;
9729;SDS011;4904;49.152;11.004;2023-02-28T05:22:15;8.70;;;6.13;;
9729;SDS011;4904;49.152;11.004;2023-02-28T05:24:43;7.53;;;5.00;;
9729;SDS011;4904;49.152;11.004;2023-02-28T05:27:10;8.03;;;5.30;;
9729;SDS011;4904;49.152;11.004;2023-02-28T05:29:37;6.80;;;5.40;;
9729;SDS011;4904;49.152;11.004;2023-02-28T05:32:09;5.90;;;4.90;;
9729;SDS011;4904;49.152;11.004;2023-02-28T05:34:36;7.40;;;5.20;;
9729;SDS011;4904;49.152;11.004;2023-02-28T05:37:04;6.90;;;5.20;;
9729;SDS011;4904;49.152;11.004;2023-02-28T05:39:31;7.20;;;4.83;;
9729;SDS011;4904;49.152;11.004;2023-02-28T05:41:58;6.27;;;5.20;;
9729;SDS011;4904;49.152;11.004;2023-02-28T05:44:25;7.53;;;5.70;;
9729;SDS011;4904;49.152;11.004;2023-02-28T05:46:51;6.80;;;5.10;;
9729;SDS011;4904;49.152;11.004;2023-02-28T05:49:20;6.47;;;5.20;;
9729;SDS011;4904;49.152;11.004;2023-02-28T05:51:47;6.70;;;5.07;;
9729;SDS011;4904;49.152;11.004;2023-02-28T05:54:14;8.53;;;5.03;;
9729;SDS011;4904;49.152;11.004;2023-02-28T05:56:40;8.10;;;5.10;;
9729;SDS011;4904;49.152;11.004;2023-02-28T05:59:09;7.30;;;4.97;;
9729;SDS011;4904;49.152;11.004;2023-02-28T06:01:39;7.27;;;5.30;;
9729;SDS011;4904;49.152;11.004;2023-02-28T06:04:10;7.03;;;5.60;;
9729;SDS011;4904;49.152;11.004;2023-02-28T06:06:40;19.00;;;13.93;;
9729;SDS011;4904;49.152;11.004;2023-02-28T06:09:07;17.37;;;11.07;;
9729;SDS011;4904;49.152;11.004;2023-02-28T06:11:34;29.03;;;14.97;;
9729;SDS011;4904;49.152;11.004;2023-02-28T06:14:03;22.43;;;12.33;;
9729;SDS011;4904;49.152;11.004;2023-02-28T06:16:30;22.30;;;9.53;;
9729;SDS011;4904;49.152;11.004;2023-02-28T06:18:59;27.23;;;11.20;;
9729;SDS011;4904;49.152;11.004;2023-02-28T06:21:27;21.53;;;10.20;;
9729;SDS011;4904;49.152;11.004;2023-02-28T06:23:56;16.70;;;9.97;;
9729;SDS011;4904;49.152;11.004;2023-02-28T06:26:24;16.97;;;12.77;;
9729;SDS011;4904;49.152;11.004;2023-02-28T06:28:52;15.43;;;11.57;;
9729;SDS011;4904;49.152;11.004;2023-02-28T06:31:19;13.43;;;10.37;;
9729;SDS011;4904;49.152;11.004;2023-02-28T06:33:47;14.83;;;10.80;;
9729;SDS011;4904;49.152;11.004;2023-02-28T06:36:15;15.17;;;9.70;;
9729;SDS011;4904;49.152;11.004;2023-02-28T06:38:42;9.83;;;8.00;;
9729;SDS011;4904;49.152;11.004;2023-02-28T06:41:10;10.13;;;7.77;;
9729;SDS011;4904;49.152;11.004;2023-02-28T06:43:38;9.70;;;7.50;;
9729;SDS011;4904;49.152;11.004;2023-02-28T06:46:08;9.00;;;7.07;;
9729;SDS011;4904;49.152;11.004;2023-02-28T06:48:38;10.53;;;7.13;;
9729;SDS011;4904;49.152;11.004;2023-02-28T06:51:06;9.07;;;6.63;;
9729;SDS011;4904;49.152;11.004;2023-02-28T06:53:34;9.97;;;6.70;;
9729;SDS011;4904;49.152;11.004;2023-02-28T06:56:03;9.00;;;6.40;;
9729;SDS011;4904;49.152;11.004;2023-02-28T06:58:33;10.73;;;7.33;;
9729;SDS011;4904;49.152;11.004;2023-02-28T07:00:59;10.20;;;6.93;;
9729;SDS011;4904;49.152;11.004;2023-02-28T07:03:27;9.30;;;6.07;;
9729;SDS011;4904;49.152;11.004;2023-02-28T07:05:54;8.93;;;7.07;;
9729;SDS011;4904;49.152;11.004;2023-02-28T07:08:21;10.20;;;7.43;;
9729;SDS011;4904;49.152;11.004;2023-02-28T07:10:51;11.57;;;7.37;;
9729;SDS011;4904;49.152;11.004;2023-02-28T07:13:18;9.23;;;7.40;;
9729;SDS011;4904;49.152;11.004;2023-02-28T07:15:54;11.17;;;6.70;;
9729;SDS011;4904;49.152;11.004;2023-02-28T07:18:21;8.97;;;6.63;;
9729;SDS011;4904;49.152;11.004;2023-02-28T07:20:48;9.30;;;6.07;;
9729;SDS011;4904;49.152;11.004;2023-02-28T07:23:15;7.50;;;6.40;;
9729;SDS011;4904;49.152;11.004;2023-02-28T07:25:42;7.27;;;6.13;;
9729;SDS011;4904;49.152;11.004;2023-02-28T07:28:10;7.97;;;6.60;;
9729;SDS011;4904;49.152;11.004;2023-02-28T07:30:38;9.77;;;6.80;;
9729;SDS011;4904;49.152;11.004;2023-02-28T07:33:06;8.33;;;6.50;;
9729;SDS011;4904;49.152;11.004;2023-02-28T07:35:33;9.03;;;7.10;;
9729;SDS011;4904;49.152;11.004;2023-02-28T07:38:00;8.50;;;6.90;;
9729;SDS011;4904;49.152;11.004;2023-02-28T07:40:27;9.30;;;6.60;;
9729;SDS011;4904;49.152;11.004;2023-02-28T07:42:54;8.20;;;6.43;;
9729;SDS011;4904;49.152;11.004;2023-02-28T07:45:21;9.23;;;7.20;;
9729;SDS011;4904;49.152;11.004;2023-02-28T07:47:48;8.77;;;6.60;;
9729;SDS011;4904;49.152;11.004;2023-02-28T07:50:16;10.77;;;7.53;;
9729;SDS011;4904;49.152;11.004;2023-02-28T07:52:43;9.83;;;6.97;;
9729;SDS011;4904;49.152;11.004;2023-02-28T07:55:10;8.60;;;6.60;;
9729;SDS011;4904;49.152;11.004;2023-02-28T07:57:38;9.57;;;7.07;;
9729;SDS011;4904;49.152;11.004;2023-02-28T08:00:07;11.17;;;7.13;;
9729;SDS011;4904;49.152;11.004;2023-02-28T08:02:37;8.63;;;7.07;;
9729;SDS011;4904;49.152;11.004;2023-02-28T08:05:04;12.40;;;7.63;;
9729;SDS011;4904;49.152;11.004;2023-02-28T08:07:33;9.40;;;6.80;;
9729;SDS011;4904;49.152;11.004;2023-02-28T08:10:00;8.83;;;6.97;;
9729;SDS011;4904;49.152;11.004;2023-02-28T08:12:27;9.33;;;6.33;;
9729;SDS011;4904;49.152;11.004;2023-02-28T08:14:54;8.17;;;6.60;;
9729;SDS011;4904;49.152;11.004;2023-02-28T08:17:21;7.93;;;6.17;;
9729;SDS011;4904;49.152;11.004;2023-02-28T08:19:47;8.10;;;6.27;;
9729;SDS011;4904;49.152;11.004;2023-02-28T08:22:15;7.77;;;5.97;;
9729;SDS011;4904;49.152;11.004;2023-02-28T08:24:43;8.97;;;6.57;;
9729;SDS011;4904;49.152;11.004;2023-02-28T08:27:10;10.03;;;6.47;;
9729;SDS011;4904;49.152;11.004;2023-02-28T08:29:38;9.30;;;6.00;;
9729;SDS011;4904;49.152;11.004;2023-02-28T08:32:05;8.70;;;6.40;;
9729;SDS011;4904;49.152;11.004;2023-02-28T08:34:33;9.53;;;6.27;;
9729;SDS011;4904;49.152;11.004;2023-02-28T08:37:00;10.53;;;6.47;;
9729;SDS011;4904;49.152;11.004;2023-02-28T08:39:26;8.77;;;6.60;;
9729;SDS011;4904;49.152;11.004;2023-02-28T08:41:55;8.27;;;6.33;;
9729;SDS011;4904;49.152;11.004;2023-02-28T08:44:21;10.53;;;6.10;;
9729;SDS011;4904;49.152;11.004;2023-02-28T08:46:48;8.63;;;6.87;;
9729;SDS011;4904;49.152;11.004;2023-02-28T08:49:15;8.53;;;6.47;;
9729;SDS011;4904;49.152;11.004;2023-02-28T08:51:42;7.80;;;6.53;;
9729;SDS011;4904;49.152;11.004;2023-02-28T08:54:09;9.33;;;7.03;;
9729;SDS011;4904;49.152;11.004;2023-02-28T08:56:37;10.53;;;6.63;;
9729;SDS011;4904;49.152;11.004;2023-02-28T08:59:06;8.13;;;6.57;;
9729;SDS011;4904;49.152;11.004;2023-02-28T09:01:35;7.70;;;6.47;;
9729;SDS011;4904;49.152;11.004;2023-02-28T09:04:02;9.83;;;6.53;;
9729;SDS011;4904;49.152;11.004;2023-02-28T09:06:29;8.87;;;6.30;;
9729;SDS011;4904;49.152;11.004;2023-02-28T09:08:58;7.93;;;6.67;;
9729;SDS011;4904;49.152;11.004;2023-02-28T09:11:26;7.33;;;6.00;;
9729;SDS011;4904;49.152;11.004;2023-02-28T09:13:53;9.30;;;6.40;;
9729;SDS011;4904;49.152;11.004;2023-02-28T09:16:22;10.47;;;6.23;;
9729;SDS011;4904;49.152;11.004;2023-02-28T09:18:49;9.37;;;6.87;;
9729;SDS011;4904;49.152;11.004;2023-02-28T09:21:17;9.17;;;6.43;;
9729;SDS011;4904;49.152;11.004;2023-02-28T09:23:46;12.97;;;7.10;;
9729;SDS011;4904;49.152;11.004;2023-02-28T09:26:14;18.07;;;6.90;;
9729;SDS011;4904;49.152;11.004;2023-02-28T09:28:42;9.43;;;6.70;;
9729;SDS011;4904;49.152;11.004;2023-02-28T09:31:11;7.83;;;6.63;;
9729;SDS011;4904;49.152;11.004;2023-02-28T09:33:41;7.83;;;6.67;;
9729;SDS011;4904;49.152;11.004;2023-02-28T09:36:08;9.80;;;7.47;;
9729;SDS011;4904;49.152;11.004;2023-02-28T09:38:35;11.07;;;8.13;;
9729;SDS011;4904;49.152;11.004;2023-02-28T09:41:02;10.10;;;6.47;;
9729;SDS011;4904;49.152;11.004;2023-02-28T09:43:36;8.43;;;6.47;;
9729;SDS011;4904;49.152;11.004;2023-02-28T09:46:08;8.23;;;6.57;;
9729;SDS011;4904;49.152;11.004;2023-02-28T09:48:45;7.60;;;6.70;;
9729;SDS011;4904;49.152;11.004;2023-02-28T09:51:15;9.60;;;6.27;;
9729;SDS011;4904;49.152;11.004;2023-02-28T09:53:54;9.00;;;6.70;;
9729;SDS011;4904;49.152;11.004;2023-02-28T09:56:21;7.97;;;6.53;;
9729;SDS011;4904;49.152;11.004;2023-02-28T09:58:53;7.17;;;6.30;;
9729;SDS011;4904;49.152;11.004;2023-02-28T10:01:27;9.00;;;6.63;;
9729;SDS011;4904;49.152;11.004;2023-02-28T10:04:05;8.87;;;6.43;;
9729;SDS011;4904;49.152;11.004;2023-02-28T10:06:43;8.43;;;5.80;;
9729;SDS011;4904;49.152;11.004;2023-02-28T10:09:14;7.50;;;5.80;;
9729;SDS011;4904;49.152;11.004;2023-02-28T10:11:46;8.93;;;7.27;;
9729;SDS011;4904;49.152;11.004;2023-02-28T10:14:14;9.23;;;6.77;;
9729;SDS011;4904;49.152;11.004;2023-02-28T10:16:44;7.47;;;6.30;;
9729;SDS011;4904;49.152;11.004;2023-02-28T10:19:19;8.13;;;6.23;;
9729;SDS011;4904;49.152;11.004;2023-02-28T10:21:51;6.70;;;6.00;;
9729;SDS011;4904;49.152;11.004;2023-02-28T10:24:29;7.80;;;6.67;;
9729;SDS011;4904;49.152;11.004;2023-02-28T10:27:00;7.17;;;5.93;;
9729;SDS011;4904;49.152;11.004;2023-02-28T10:29:37;24.93;;;7.77;;
9729;SDS011;4904;49.152;11.004;2023-02-28T10:32:08;8.37;;;6.30;;
9729;SDS011;4904;49.152;11.004;2023-02-28T10:34:40;8.40;;;5.87;;
9729;SDS011;4904;49.152;11.004;2023-02-28T10:37:07;11.20;;;6.33;;
9729;SDS011;4904;49.152;11.004;2023-02-28T10:39:35;7.40;;;6.27;;
9729;SDS011;4904;49.152;11.004;2023-02-28T10:42:03;9.03;;;6.30;;
9729;SDS011;4904;49.152;11.004;2023-02-28T10:44:31;6.70;;;6.10;;
9729;SDS011;4904;49.152;11.004;2023-02-28T10:46:58;8.37;;;6.67;;
9729;SDS011;4904;49.152;11.004;2023-02-28T10:49:26;9.88;;;6.68;;
9729;SDS011;4904;49.152;11.004;2023-02-28T10:51:56;7.13;;;6.43;;
9729;SDS011;4904;49.152;11.004;2023-02-28T10:54:24;7.57;;;6.50;;
9729;SDS011;4904;49.152;11.004;2023-02-28T10:57:08;7.50;;;6.20;;
9729;SDS011;4904;49.152;11.004;2023-02-28T10:59:42;10.07;;;6.68;;
9729;SDS011;4904;49.152;11.004;2023-02-28T11:04:56;7.80;;;6.03;;
9729;SDS011;4904;49.152;11.004;2023-02-28T11:07:25;9.97;;;7.60;;
9729;SDS011;4904;49.152;11.004;2023-02-28T11:09:53;13.35;;;6.95;;
9729;SDS011;4904;49.152;11.004;2023-02-28T11:12:22;6.78;;;5.85;;
9729;SDS011;4904;49.152;11.004;2023-02-28T11:14:53;8.48;;;6.30;;
9729;SDS011;4904;49.152;11.004;2023-02-28T11:17:23;11.85;;;7.43;;
9729;SDS011;4904;49.152;11.004;2023-02-28T11:19:52;8.00;;;6.43;;
9729;SDS011;4904;49.152;11.004;2023-02-28T11:22:23;7.47;;;6.22;;
9729;SDS011;4904;49.152;11.004;2023-02-28T11:24:54;9.70;;;6.35;;
9729;SDS011;4904;49.152;11.004;2023-02-28T11:30:26;6.47;;;5.88;;
9729;SDS011;4904;49.152;11.004;2023-02-28T11:32:54;17.20;;;6.75;;
9729;SDS011;4904;49.152;11.004;2023-02-28T11:35:23;7.93;;;6.57;;
9729;SDS011;4904;49.152;11.004;2023-02-28T11:37:54;8.45;;;5.50;;
9729;SDS011;4904;49.152;11.004;2023-02-28T11:40:23;14.18;;;6.50;;
9729;SDS011;4904;49.152;11.004;2023-02-28T11:43:01;6.53;;;5.93;;
9729;SDS011;4904;49.152;11.004;2023-02-28T11:45:39;7.30;;;5.90;;
9729;SDS011;4904;49.152;11.004;2023-02-28T11:48:13;9.27;;;6.53;;
9729;SDS011;4904;49.152;11.004;2023-02-28T11:50:50;7.25;;;5.85;;
9729;SDS011;4904;49.152;11.004;2023-02-28T11:53:34;9.75;;;6.93;;
9729;SDS011;4904;49.152;11.004;2023-02-28T11:56:18;7.18;;;6.47;;
9729;SDS011;4904;49.152;11.004;2023-02-28T11:58:53;6.93;;;6.22;;
9729;SDS011;4904;49.152;11.004;2023-02-28T12:01:31;8.40;;;6.53;;
9729;SDS011;4904;49.152;11.004;2023-02-28T12:04:10;7.40;;;6.63;;
9729;SDS011;4904;49.152;11.004;2023-02-28T12:06:46;7.20;;;6.43;;
9729;SDS011;4904;49.152;11.004;2023-02-28T12:09:32;8.57;;;6.82;;
9729;SDS011;4904;49.152;11.004;2023-02-28T12:12:13;9.45;;;7.90;;
9729;SDS011;4904;49.152;11.004;2023-02-28T12:14:54;8.75;;;7.45;;
9729;SDS011;4904;49.152;11.004;2023-02-28T12:17:46;7.78;;;6.97;;
9729;SDS011;4904;49.152;11.004;2023-02-28T12:20:28;7.13;;;6.32;;
9729;SDS011;4904;49.152;11.004;2023-02-28T12:23:04;9.20;;;6.18;;
9729;SDS011;4904;49.152;11.004;2023-02-28T12:25:52;9.32;;;6.10;;
9729;SDS011;4904;49.152;11.004;2023-02-28T12:28:28;7.32;;;6.35;;
9729;SDS011;4904;49.152;11.004;2023-02-28T12:30:59;7.35;;;6.55;;
9729;SDS011;4904;49.152;11.004;2023-02-28T12:33:32;7.47;;;6.78;;
9729;SDS011;4904;49.152;11.004;2023-02-28T12:36:03;8.48;;;6.13;;
9729;SDS011;4904;49.152;11.004;2023-02-28T12:38:38;8.05;;;6.25;;
9729;SDS011;4904;49.152;11.004;2023-02-28T12:41:12;7.95;;;6.50;;
9729;SDS011;4904;49.152;11.004;2023-02-28T12:43:43;6.97;;;6.18;;
9729;SDS011;4904;49.152;11.004;2023-02-28T12:46:15;7.97;;;7.05;;
9729;SDS011;4904;49.152;11.004;2023-02-28T12:48:46;8.38;;;7.18;;
9729;SDS011;4904;49.152;11.004;2023-02-28T12:51:17;7.70;;;6.90;;
9729;SDS011;4904;49.152;11.004;2023-02-28T12:53:49;7.43;;;6.20;;
9729;SDS011;4904;49.152;11.004;2023-02-28T12:56:29;7.20;;;6.35;;
9729;SDS011;4904;49.152;11.004;2023-02-28T12:59:03;6.45;;;5.70;;
9729;SDS011;4904;49.152;11.004;2023-02-28T13:01:38;9.23;;;6.25;;
9729;SDS011;4904;49.152;11.004;2023-02-28T13:10:13;7.47;;;6.00;;
9729;SDS011;4904;49.152;11.004;2023-02-28T13:12:48;6.82;;;5.70;;
9729;SDS011;4904;49.152;11.004;2023-02-28T13:15:17;6.93;;;6.15;;
9729;SDS011;4904;49.152;11.004;2023-02-28T13:17:49;10.95;;;9.15;;
9729;SDS011;4904;49.152;11.004;2023-02-28T13:20:18;10.25;;;9.02;;
9729;SDS011;4904;49.152;11.004;2023-02-28T13:22:47;7.40;;;6.47;;
9729;SDS011;4904;49.152;11.004;2023-02-28T13:31:33;11.30;;;7.05;;
9729;SDS011;4904;49.152;11.004;2023-02-28T13:34:38;8.55;;;7.05;;
9729;SDS011;4904;49.152;11.004;2023-02-28T13:40:06;7.28;;;6.57;;
9729;SDS011;4904;49.152;11.004;2023-02-28T13:42:49;7.30;;;6.40;;
9729;SDS011;4904;49.152;11.004;2023-02-28T13:45:21;8.13;;;7.13;;
9729;SDS011;4904;49.152;11.004;2023-02-28T13:47:59;7.78;;;6.57;;
9729;SDS011;4904;49.152;11.004;2023-02-28T13:50:29;7.72;;;6.60;;
9729;SDS011;4904;49.152;11.004;2023-02-28T13:55:53;14.25;;;6.97;;
9729;SDS011;4904;49.152;11.004;2023-02-28T13:58:28;8.18;;;6.95;;
9729;SDS011;4904;49.152;11.004;2023-02-28T14:01:21;7.93;;;6.47;;
9729;SDS011;4904;49.152;11.004;2023-02-28T14:07:18;8.90;;;6.90;;
9729;SDS011;4904;49.152;11.004;2023-02-28T14:09:49;8.25;;;6.60;;
9729;SDS011;4904;49.152;11.004;2023-02-28T14:15:34;7.22;;;6.35;;
9729;SDS011;4904;49.152;11.004;2023-02-28T14:18:25;7.97;;;6.55;;
9729;SDS011;4904;49.152;11.004;2023-02-28T14:20:57;7.93;;;6.97;;
9729;SDS011;4904;49.152;11.004;2023-02-28T14:26:19;8.98;;;8.07;;
9729;SDS011;4904;49.152;11.004;2023-02-28T14:29:11;10.35;;;9.25;;
9729;SDS011;4904;49.152;11.004;2023-02-28T14:32:06;10.68;;;8.25;;
9729;SDS011;4904;49.152;11.004;2023-02-28T14:34:40;12.00;;;8.20;;
9729;SDS011;4904;49.152;11.004;2023-02-28T14:37:16;9.40;;;8.40;;
9729;SDS011;4904;49.152;11.004;2023-02-28T14:39:46;9.77;;;8.02;;
9729;SDS011;4904;49.152;11.004;2023-02-28T14:45:00;8.27;;;7.32;;
9729;SDS011;4904;49.152;11.004;2023-02-28T14:47:27;9.15;;;7.60;;
9729;SDS011;4904;49.152;11.004;2023-02-28T14:49:58;9.80;;;8.23;;
9729;SDS011;4904;49.152;11.004;2023-02-28T14:52:27;7.78;;;7.03;;
9729;SDS011;4904;49.152;11.004;2023-02-28T14:54:57;11.02;;;7.82;;
9729;SDS011;4904;49.152;11.004;2023-02-28T14:57:25;8.45;;;7.38;;
9729;SDS011;4904;49.152;11.004;2023-02-28T14:59:57;8.43;;;7.50;;
9729;SDS011;4904;49.152;11.004;2023-02-28T15:02:26;10.57;;;7.40;;
9729;SDS011;4904;49.152;11.004;2023-02-28T15:04:58;9.50;;;7.68;;
9729;SDS011;4904;49.152;11.004;2023-02-28T15:07:28;10.05;;;9.02;;
9729;SDS011;4904;49.152;11.004;2023-02-28T15:12:44;13.13;;;7.30;;
9729;SDS011;4904;49.152;11.004;2023-02-28T15:15:17;7.35;;;6.57;;
9729;SDS011;4904;49.152;11.004;2023-02-28T15:17:46;8.07;;;7.20;;
9729;SDS011;4904;49.152;11.004;2023-02-28T15:20:17;10.75;;;8.02;;
9729;SDS011;4904;49.152;11.004;2023-02-28T15:22:46;9.15;;;8.25;;
9729;SDS011;4904;49.152;11.004;2023-02-28T15:25:17;10.50;;;9.30;;
9729;SDS011;4904;49.152;11.004;2023-02-28T15:27:47;9.30;;;8.18;;
9729;SDS011;4904;49.152;11.004;2023-02-28T15:30:16;9.95;;;7.90;;
9729;SDS011;4904;49.152;11.004;2023-02-28T15:33:01;10.13;;;9.10;;
9729;SDS011;4904;49.152;11.004;2023-02-28T15:35:31;9.15;;;7.93;;
9729;SDS011;4904;49.152;11.004;2023-02-28T15:38:01;9.10;;;8.18;;
9729;SDS011;4904;49.152;11.004;2023-02-28T15:40:31;9.40;;;8.50;;
9729;SDS011;4904;49.152;11.004;2023-02-28T15:43:05;10.77;;;9.18;;
9729;SDS011;4904;49.152;11.004;2023-02-28T15:45:37;10.20;;;9.20;;
9729;SDS011;4904;49.152;11.004;2023-02-28T15:48:13;9.55;;;8.55;;
9729;SDS011;4904;49.152;11.004;2023-02-28T15:50:43;11.65;;;9.07;;
9729;SDS011;4904;49.152;11.004;2023-02-28T15:53:15;11.30;;;9.05;;
9729;SDS011;4904;49.152;11.004;2023-02-28T15:55:45;10.25;;;8.10;;
9729;SDS011;4904;49.152;11.004;2023-02-28T15:58:20;12.27;;;9.88;;
9729;SDS011;4904;49.152;11.004;2023-02-28T16:00:59;13.23;;;11.50;;